Time;durP1;ratioP1;P1;durP2;ratioP2;P2;SDS_P1;SDS_P2;PMS_P1;PMS_P2;Temp;Humidity;BMP_temperature;BMP_pressure;BME280_temperature;BME280_humidity;BME280_pressure;Samples;Min_cycle;Max_cycle;Signal;HPM_P1;HPM_P2
2021/10/16 00:01:31;;;;;;;29.25;14.80;;;;;;;2.07;91.24;100469.52;1671951;85;21550;-82
2021/10/16 00:03:58;;;;;;;51.08;24.82;;;;;;;1.99;91.77;100463.45;1672343;85;21490;-82
2021/10/16 00:06:25;;;;;;;39.95;18.90;;;;;;;1.92;92.13;100463.00;1671852;85;21160;-83
2021/10/16 00:08:51;;;;;;;45.10;21.52;;;;;;;1.85;92.36;100462.97;1638645;87;21082;-83
2021/10/16 00:11:18;;;;;;;48.55;22.22;;;;;;;1.80;93.00;100462.53;1671732;85;21448;-82
2021/10/16 00:13:44;;;;;;;46.45;22.58;;;;;;;1.71;94.20;100458.59;1648288;86;21102;-82
2021/10/16 00:16:11;;;;;;;54.63;24.72;;;;;;;1.71;94.20;100458.59;1649053;87;21552;-81
2021/10/16 00:18:38;;;;;;;56.45;24.40;;;;;;;1.59;94.54;100463.30;1648985;85;21832;-81
2021/10/16 00:21:04;;;;;;;52.25;24.82;;;;;;;1.52;94.63;100451.13;1647799;87;21989;-80
2021/10/16 00:23:31;;;;;;;47.88;21.73;;;;;;;1.52;94.63;100451.13;1648359;87;21066;-80
2021/10/16 00:25:57;;;;;;;57.33;27.30;;;;;;;1.45;95.62;100460.20;1647687;85;21521;-80
2021/10/16 00:28:24;;;;;;;55.15;25.05;;;;;;;1.39;95.84;100454.97;1648555;85;21553;-80
2021/10/16 00:30:52;;;;;;;58.63;26.00;;;;;;;1.32;96.32;100457.09;1648239;85;21555;-80
2021/10/16 00:33:18;;;;;;;56.55;28.07;;;;;;;1.28;96.86;100455.77;1609683;87;21082;-80
2021/10/16 00:35:45;;;;;;;51.28;24.63;;;;;;;1.24;97.51;100439.30;1650710;86;21065;-79
2021/10/16 00:38:12;;;;;;;39.58;16.95;;;;;;;1.22;97.84;100428.03;1634207;87;21554;-82
2021/10/16 00:40:39;;;;;;;34.15;16.62;;;;;;;1.19;97.91;100431.92;1677305;85;21754;-81
2021/10/16 00:43:05;;;;;;;34.05;15.53;;;;;;;1.13;98.09;100433.17;1677473;85;21486;-82
2021/10/16 00:45:33;;;;;;;47.17;22.82;;;;;;;1.13;98.09;100433.17;1676889;85;21095;-83
2021/10/16 00:47:59;;;;;;;35.80;17.50;;;;;;;1.12;98.22;100430.16;1659218;85;21073;-83
2021/10/16 00:50:26;;;;;;;30.43;15.45;;;;;;;1.08;98.25;100433.58;1634134;87;21142;-80
2021/10/16 00:52:53;;;;;;;52.80;24.25;;;;;;;1.08;98.33;100430.55;1650781;86;21547;-80
2021/10/16 00:55:22;;;;;;;48.58;25.95;;;;;;;1.06;98.60;100424.52;1634248;87;21149;-80
2021/10/16 00:57:48;;;;;;;51.63;23.70;;;;;;;1.04;98.65;100421.04;1650887;86;21046;-81
2021/10/16 01:00:16;;;;;;;47.50;24.70;;;;;;;1.02;98.74;100418.86;1634413;87;21131;-82
2021/10/16 01:02:42;;;;;;;49.03;23.73;;;;;;;1.03;99.13;100414.95;1676890;85;21703;-78
2021/10/16 01:05:10;;;;;;;44.40;22.60;;;;;;;1.04;99.48;100414.12;1676753;85;21161;-81
2021/10/16 01:07:39;;;;;;;45.45;21.85;;;;;;;1.05;99.66;100409.79;1657517;85;21842;-80
2021/10/16 01:10:10;;;;;;;46.60;23.25;;;;;;;1.04;99.88;100408.06;1676929;85;21010;-79
2021/10/16 01:12:39;;;;;;;54.83;24.35;;;;;;;1.05;99.92;100413.25;1674892;85;21077;-80
2021/10/16 01:15:13;;;;;;;56.53;27.42;;;;;;;1.03;100.00;100407.17;1671543;85;21026;-80
2021/10/16 01:17:41;;;;;;;58.23;26.45;;;;;;;1.01;100.00;100412.81;1672139;85;21108;-81
2021/10/16 01:20:18;;;;;;;44.55;22.10;;;;;;;1.00;100.00;100417.55;1671885;85;21142;-80
2021/10/16 01:22:45;;;;;;;56.08;26.48;;;;;;;0.99;100.00;100409.74;1672063;84;21110;-80
2021/10/16 01:26:59;;;;;;;65.53;30.93;;;;;;;1.04;100.00;100407.63;1796514;79;22673;-80
2021/10/16 01:29:26;;;;;;;53.02;26.60;;;;;;;1.02;100.00;100410.64;1756715;81;21026;-80
2021/10/16 01:31:53;;;;;;;46.83;21.50;;;;;;;1.04;100.00;100410.66;1749952;81;21663;-82
2021/10/16 01:34:19;;;;;;;48.10;21.15;;;;;;;1.02;100.00;100417.13;1748180;82;20946;-82
2021/10/16 01:36:49;;;;;;;75.72;32.08;;;;;;;1.03;100.00;100412.36;1748136;82;21995;-82
2021/10/16 01:39:18;;;;;;;78.78;34.20;;;;;;;1.02;100.00;100414.53;1697682;84;21064;-77
2021/10/16 01:41:47;;;;;;;74.30;29.70;;;;;;;1.04;100.00;100412.82;1697542;84;21045;-78
2021/10/16 01:44:14;;;;;;;60.88;27.15;;;;;;;1.05;100.00;100404.16;1697430;84;21722;-79
2021/10/16 01:46:41;;;;;;;58.08;25.30;;;;;;;1.07;100.00;100404.62;1697115;84;21516;-77
2021/10/16 01:49:12;;;;;;;64.97;29.20;;;;;;;1.10;100.00;100405.92;1715238;83;21028;-77
2021/10/16 01:51:38;;;;;;;87.05;35.03;;;;;;;1.14;100.00;100401.20;1715651;83;21091;-80
2021/10/16 01:54:05;;;;;;;84.15;33.55;;;;;;;1.20;100.00;100393.47;1708447;84;21053;-79
2021/10/16 01:56:33;;;;;;;78.55;34.05;;;;;;;1.25;100.00;100395.20;1710851;84;22001;-79
2021/10/16 01:59:21;;;;;;;80.67;34.60;;;;;;;1.31;100.00;100391.80;1711683;78;21046;-79
2021/10/16 02:01:55;;;;;;;89.25;35.40;;;;;;;1.39;100.00;100392.68;1706327;84;21620;-78
2021/10/16 02:04:23;;;;;;;87.37;33.88;;;;;;;1.46;100.00;100386.66;1708371;84;21057;-80
2021/10/16 02:06:51;;;;;;;60.08;23.83;;;;;;;1.53;100.00;100391.44;1707658;84;21055;-79
2021/10/16 02:09:18;;;;;;;58.60;26.52;;;;;;;1.58;100.00;100395.35;1707793;84;21107;-76
2021/10/16 02:11:45;;;;;;;52.08;21.60;;;;;;;1.67;100.00;100395.39;1707357;84;21100;-76
2021/10/16 02:14:12;;;;;;;58.05;24.90;;;;;;;1.84;100.00;100383.74;1707160;84;21111;-77
2021/10/16 02:16:40;;;;;;;55.80;25.17;;;;;;;1.88;100.00;100377.26;1707250;83;21171;-75
2021/10/16 02:19:13;;;;;;;56.48;25.35;;;;;;;1.88;100.00;100377.26;1707172;84;21124;-75
2021/10/16 02:21:39;;;;;;;47.80;20.82;;;;;;;2.03;100.00;100368.65;1707181;84;21128;-75
2021/10/16 02:24:06;;;;;;;63.95;26.97;;;;;;;2.03;100.00;100368.65;1707337;84;21097;-79
2021/10/16 02:26:37;;;;;;;59.58;27.37;;;;;;;2.12;100.00;100366.91;1698037;83;21541;-80
2021/10/16 02:29:04;;;;;;;67.27;30.50;;;;;;;2.18;100.00;100371.69;1695178;84;21030;-79
2021/10/16 02:31:32;;;;;;;61.48;29.42;;;;;;;2.25;100.00;100365.63;1694552;84;20994;-80
2021/10/16 02:33:59;;;;;;;56.60;29.15;;;;;;;2.30;100.00;100366.52;1694834;84;21144;-80
2021/10/16 02:36:28;;;;;;;60.52;30.97;;;;;;;2.38;100.00;100360.45;1694377;84;21042;-80
2021/10/16 02:38:54;;;;;;;57.05;29.00;;;;;;;2.43;100.00;100357.41;1694452;84;21037;-82
2021/10/16 02:41:21;;;;;;;56.80;26.60;;;;;;;2.52;100.00;100363.91;1694702;84;21090;-81
2021/10/16 02:43:47;;;;;;;57.93;27.42;;;;;;;2.59;100.00;100365.63;1680211;84;21097;-82
2021/10/16 02:46:14;;;;;;;50.25;23.38;;;;;;;2.67;100.00;100366.51;1667095;86;21123;-82
2021/10/16 02:48:40;;;;;;;66.87;30.32;;;;;;;2.75;100.00;100365.19;1666844;86;21105;-81
2021/10/16 02:51:07;;;;;;;57.83;26.55;;;;;;;2.83;100.00;100362.56;1666945;86;21084;-80
2021/10/16 02:53:36;;;;;;;55.80;26.55;;;;;;;2.89;100.00;100359.96;1666980;85;21253;-78
2021/10/16 02:56:04;;;;;;;55.88;25.37;;;;;;;2.96;100.00;100368.18;1667896;86;21015;-85
2021/10/16 02:58:33;;;;;;;40.95;20.88;;;;;;;3.01;100.00;100365.13;1668535;86;21164;-86
2021/10/16 03:00:59;;;;;;;47.50;24.18;;;;;;;3.08;100.00;100360.37;1680903;84;21088;-85
2021/10/16 03:03:26;;;;;;;48.33;23.20;;;;;;;3.17;100.00;100362.49;1698443;79;20982;-79
2021/10/16 03:05:53;;;;;;;49.90;22.30;;;;;;;3.25;100.00;100365.95;1695710;84;21050;-79
2021/10/16 03:08:21;;;;;;;48.58;23.12;;;;;;;3.31;100.00;100359.40;1697846;84;21084;-80
2021/10/16 03:10:49;;;;;;;53.28;26.57;;;;;;;3.36;100.00;100361.13;1638636;86;21081;-79
2021/10/16 03:13:18;;;;;;;50.00;25.77;;;;;;;3.44;100.00;100357.19;1658318;86;21611;-81
2021/10/16 03:15:46;;;;;;;48.28;24.02;;;;;;;3.52;100.00;100364.95;1660073;86;21066;-80
2021/10/16 03:18:15;;;;;;;53.17;25.60;;;;;;;3.60;100.00;100359.73;1659986;86;21790;-79
2021/10/16 03:20:42;;;;;;;43.68;23.07;;;;;;;3.66;100.00;100354.47;1660967;86;21038;-79
2021/10/16 03:23:11;;;;;;;49.80;24.87;;;;;;;3.73;100.00;100345.77;1661365;86;22499;-79
2021/10/16 03:25:39;;;;;;;42.50;24.05;;;;;;;3.80;100.00;100344.86;1683889;85;21054;-78
2021/10/16 03:28:05;;;;;;;44.85;23.70;;;;;;;3.87;100.00;100349.16;1688365;85;21508;-77
2021/10/16 03:30:32;;;;;;;44.77;23.42;;;;;;;3.94;100.00;100349.55;1687698;85;21081;-78
2021/10/16 03:32:59;;;;;;;49.80;24.63;;;;;;;4.01;100.00;100343.86;1713518;83;21093;-76
2021/10/16 03:35:25;;;;;;;39.20;19.42;;;;;;;4.07;100.00;100349.04;1715263;83;21822;-79
2021/10/16 03:37:53;;;;;;;34.73;18.90;;;;;;;4.10;100.00;100341.19;1715601;83;21097;-79
2021/10/16 03:40:20;;;;;;;44.80;23.38;;;;;;;4.15;100.00;100339.84;1714445;82;21026;-78
2021/10/16 03:42:48;;;;;;;38.30;19.75;;;;;;;4.21;100.00;100343.72;1714376;83;21568;-78
2021/10/16 03:45:17;;;;;;;37.77;20.53;;;;;;;4.26;100.00;100339.33;1714460;83;21093;-78
2021/10/16 03:47:44;;;;;;;42.85;22.70;;;;;;;4.32;100.00;100341.87;1714197;83;21120;-77
2021/10/16 03:50:11;;;;;;;39.03;21.60;;;;;;;4.36;100.00;100340.97;1714285;83;21046;-79
2021/10/16 03:52:38;;;;;;;37.38;19.75;;;;;;;4.42;100.00;100342.68;1714536;83;21073;-84
2021/10/16 03:58:30;;;;;;;47.95;24.67;;;;;;;4.53;100.00;100346.48;1682380;83;21058;-79
2021/10/16 04:08:42;;;;;;;38.98;19.52;;;;;;;4.64;100.00;100340.73;1709954;83;21016;-79
2021/10/16 04:12:27;;;;;;;40.92;21.30;;;;;;;4.68;100.00;100344.19;1679122;84;21097;-77
2021/10/16 04:15:01;;;;;;;44.20;23.87;;;;;;;4.70;100.00;100348.51;1685389;83;21098;-76
2021/10/16 04:17:42;;;;;;;41.00;23.30;;;;;;;4.72;100.00;100344.14;1710078;83;21179;-78
2021/10/16 04:20:25;;;;;;;35.58;20.48;;;;;;;4.74;100.00;100350.22;1711548;83;20959;-79
2021/10/16 04:23:08;;;;;;;29.30;15.43;;;;;;;4.75;100.00;100354.54;1727317;83;20990;-80
2021/10/16 04:25:44;;;;;;;37.98;20.70;;;;;;;4.76;100.00;100351.07;1705137;83;21036;-80
2021/10/16 04:28:26;;;;;;;34.53;20.82;;;;;;;4.78;100.00;100356.25;1698512;84;21038;-78
2021/10/16 04:31:20;;;;;;;42.00;23.02;;;;;;;4.80;100.00;100351.44;1699265;84;21110;-79
2021/10/16 04:33:59;;;;;;;38.53;20.80;;;;;;;4.83;100.00;100347.52;1679468;85;21551;-78
2021/10/16 04:36:37;;;;;;;37.67;21.65;;;;;;;4.86;100.00;100345.31;1673544;85;21034;-77
2021/10/16 04:39:16;;;;;;;38.80;22.07;;;;;;;4.90;100.00;100352.66;1747537;82;21316;-79
2021/10/16 04:42:12;;;;;;;35.35;20.65;;;;;;;4.90;100.00;100352.66;1673814;85;21064;-79
2021/10/16 04:44:44;;;;;;;42.38;22.48;;;;;;;4.91;100.00;100354.39;1696651;83;21727;-81
2021/10/16 04:47:24;;;;;;;42.75;22.52;;;;;;;4.93;100.00;100353.95;1651221;85;21137;-80
2021/10/16 04:49:53;;;;;;;41.73;21.00;;;;;;;4.96;100.00;100352.59;1691217;84;21557;-82
2021/10/16 04:52:20;;;;;;;39.03;20.68;;;;;;;5.00;100.00;100341.25;1688619;84;21015;-83
2021/10/16 04:54:47;;;;;;;40.98;21.30;;;;;;;5.06;100.00;100346.38;1678678;84;21099;-81
2021/10/16 04:57:14;;;;;;;35.35;18.45;;;;;;;5.11;100.00;100344.61;1694366;84;21152;-84
2021/10/16 04:59:40;;;;;;;32.98;17.67;;;;;;;5.17;100.00;100344.52;1662068;84;21567;-81
2021/10/16 05:02:07;;;;;;;39.38;21.93;;;;;;;5.22;100.00;100343.16;1673234;85;21016;-80
2021/10/16 05:04:38;;;;;;;42.45;22.42;;;;;;;5.25;100.00;100342.70;1681606;85;21588;-81
2021/10/16 05:07:06;;;;;;;36.33;20.30;;;;;;;5.29;100.00;100346.16;1660233;85;21089;-81
2021/10/16 05:09:38;;;;;;;43.28;21.70;;;;;;;5.35;100.00;100342.59;1663383;84;21076;-79
2021/10/16 05:12:06;;;;;;;41.13;19.80;;;;;;;5.39;100.00;100344.28;1673977;84;21071;-79
2021/10/16 05:14:35;;;;;;;33.28;20.77;;;;;;;5.43;100.00;100340.76;1681643;84;21046;-76
2021/10/16 05:17:03;;;;;;;43.13;23.25;;;;;;;5.46;100.00;100345.94;1667312;86;21048;-76
2021/10/16 05:19:34;;;;;;;45.73;24.82;;;;;;;5.50;100.00;100354.16;1663373;85;21640;-80
2021/10/16 05:22:03;;;;;;;41.92;22.93;;;;;;;5.53;100.00;100340.19;1667662;86;21130;-80
2021/10/16 05:24:34;;;;;;;41.42;24.10;;;;;;;5.58;100.00;100340.54;1680158;85;21496;-80
2021/10/16 05:27:03;;;;;;;43.60;23.62;;;;;;;5.62;100.00;100330.92;1667660;86;21071;-80
2021/10/16 05:29:30;;;;;;;39.20;22.13;;;;;;;5.67;99.62;100329.97;1679681;85;21050;-81
2021/10/16 05:31:58;;;;;;;44.42;23.92;;;;;;;5.72;99.68;100335.58;1661806;86;21105;-81
2021/10/16 05:34:27;;;;;;;40.63;22.30;;;;;;;5.76;99.55;100337.27;1661748;85;21158;-82
2021/10/16 05:36:54;;;;;;;42.58;23.18;;;;;;;5.79;99.91;100330.23;1661649;86;21078;-81
2021/10/16 05:39:21;;;;;;;42.90;22.77;;;;;;;5.85;99.75;100335.83;1661685;86;21125;-81
2021/10/16 05:41:48;;;;;;;42.40;23.70;;;;;;;5.86;98.73;100335.78;1661875;85;21081;-81
2021/10/16 05:44:16;;;;;;;36.28;21.73;;;;;;;5.88;98.93;100338.39;1660046;86;21069;-81
2021/10/16 05:46:43;;;;;;;38.10;21.62;;;;;;;5.87;99.18;100344.52;1667147;86;21172;-82
2021/10/16 05:49:14;;;;;;;37.25;22.65;;;;;;;5.90;100.00;100343.16;1677053;85;21012;-82
2021/10/16 05:51:45;;;;;;;49.33;25.17;;;;;;;5.90;100.00;100339.23;1671198;84;21056;-82
2021/10/16 05:54:13;;;;;;;39.42;22.60;;;;;;;5.96;100.00;100337.88;1682358;85;21122;-81
2021/10/16 05:56:39;;;;;;;46.23;24.63;;;;;;;6.00;100.00;100336.07;1679403;85;21145;-81
2021/10/16 05:59:06;;;;;;;45.00;25.77;;;;;;;6.05;99.78;100335.55;1698559;84;21126;-81
2021/10/16 06:01:34;;;;;;;40.70;24.00;;;;;;;6.07;99.41;100329.44;1698369;84;21074;-80
2021/10/16 06:04:01;;;;;;;43.80;22.80;;;;;;;6.13;99.57;100330.22;1698292;84;21063;-82
2021/10/16 06:06:28;;;;;;;42.88;24.37;;;;;;;6.18;99.00;100324.47;1690092;84;21132;-81
2021/10/16 06:08:56;;;;;;;44.20;23.02;;;;;;;6.25;98.94;100336.56;1698551;84;21547;-79
2021/10/16 06:11:24;;;;;;;41.45;24.87;;;;;;;6.27;98.88;100336.09;1698012;84;21132;-79
2021/10/16 06:13:50;;;;;;;50.45;27.05;;;;;;;6.28;99.27;100328.65;1698766;84;21084;-80
2021/10/16 06:16:17;;;;;;;48.30;27.42;;;;;;;6.30;99.64;100337.34;1699827;84;21057;-81
2021/10/16 06:18:46;;;;;;;50.75;26.70;;;;;;;6.36;100.00;100342.48;1693042;84;21043;-80
2021/10/16 06:21:13;;;;;;;47.65;26.77;;;;;;;6.42;100.00;100336.27;1670507;85;21095;-82
2021/10/16 06:23:41;;;;;;;49.45;26.00;;;;;;;6.43;99.51;100337.56;1676407;84;21098;-80
2021/10/16 06:26:09;;;;;;;51.05;27.70;;;;;;;6.46;100.00;100331.41;1698569;84;21065;-81
2021/10/16 06:28:35;;;;;;;44.20;24.65;;;;;;;6.54;100.00;100326.07;1689222;84;21155;-80
2021/10/16 06:31:02;;;;;;;43.87;25.62;;;;;;;6.61;100.00;100330.30;1696029;84;21072;-81
2021/10/16 06:33:31;;;;;;;48.40;25.60;;;;;;;6.66;100.00;100330.62;1685833;84;21164;-81
2021/10/16 06:36:02;;;;;;;44.40;25.43;;;;;;;6.74;100.00;100337.05;1694836;84;21173;-80
2021/10/16 06:38:38;;;;;;;38.88;22.58;;;;;;;6.81;100.00;100336.05;1693715;84;21120;-81
2021/10/16 06:41:06;;;;;;;44.10;25.27;;;;;;;6.87;100.00;100330.67;1688223;84;21606;-80
2021/10/16 06:43:44;;;;;;;47.05;26.52;;;;;;;6.96;100.00;100334.03;1689804;84;21085;-80
2021/10/16 06:46:21;;;;;;;44.00;24.55;;;;;;;7.04;100.00;100335.61;1677128;84;21064;-80
2021/10/16 06:48:51;;;;;;;45.58;26.07;;;;;;;7.10;99.46;100345.95;1697744;84;21332;-81
2021/10/16 06:51:19;;;;;;;46.08;26.87;;;;;;;7.11;99.25;100338.98;1697227;84;21120;-80
2021/10/16 06:53:48;;;;;;;44.05;25.45;;;;;;;7.17;99.72;100336.22;1698018;84;21289;-80
2021/10/16 06:56:15;;;;;;;41.20;24.90;;;;;;;7.23;100.00;100333.48;1697140;84;21199;-81
2021/10/16 06:58:42;;;;;;;38.42;22.42;;;;;;;7.29;99.71;100334.69;1707656;83;21710;-81
2021/10/16 07:01:08;;;;;;;43.30;24.60;;;;;;;7.33;99.39;100332.39;1733816;82;21633;-81
2021/10/16 07:03:37;;;;;;;40.52;24.87;;;;;;;7.38;99.44;100324.89;1736619;82;21444;-81
2021/10/16 07:06:04;;;;;;;46.33;24.77;;;;;;;7.41;99.18;100333.99;1743235;82;21041;-80
2021/10/16 07:08:31;;;;;;;48.10;26.87;;;;;;;7.48;99.46;100335.62;1745645;81;21118;-81
2021/10/16 07:10:58;;;;;;;47.27;25.27;;;;;;;7.56;99.63;100331.06;1725997;82;21020;-81
2021/10/16 07:13:26;;;;;;;41.95;22.95;;;;;;;7.62;99.67;100336.18;1738297;82;21143;-80
2021/10/16 07:15:53;;;;;;;44.18;27.65;;;;;;;7.72;99.35;100331.13;1744723;82;21041;-80
2021/10/16 07:18:21;;;;;;;47.13;26.02;;;;;;;7.80;98.26;100326.17;1741794;81;21571;-80
2021/10/16 07:20:47;;;;;;;45.30;27.22;;;;;;;7.79;97.32;100331.86;1736464;82;21366;-81
2021/10/16 07:23:20;;;;;;;46.65;26.80;;;;;;;7.81;97.95;100329.22;1734124;82;21093;-82
2021/10/16 07:25:44;;;;;;;53.80;26.82;;;;;;;7.84;97.97;100329.14;1742177;82;21102;-80
2021/10/16 07:28:12;;;;;;;43.30;25.60;;;;;;;7.82;97.23;100323.06;1739893;82;21543;-80
2021/10/16 07:30:38;;;;;;;49.88;27.17;;;;;;;7.81;97.54;100325.29;1739030;82;21128;-79
2021/10/16 07:33:05;;;;;;;44.77;26.25;;;;;;;7.83;97.42;100324.81;1735631;82;21527;-78
2021/10/16 07:35:34;;;;;;;46.90;26.73;;;;;;;7.86;97.51;100327.34;1723854;82;21077;-78
2021/10/16 07:38:00;;;;;;;47.10;27.27;;;;;;;7.89;97.68;100318.09;1742993;82;21120;-80
2021/10/16 07:40:27;;;;;;;42.50;24.67;;;;;;;7.93;97.38;100318.44;1729792;81;21124;-78
2021/10/16 07:43:05;;;;;;;44.83;24.65;;;;;;;7.97;97.28;100314.40;1720707;82;20966;-77
2021/10/16 07:45:37;;;;;;;42.15;25.95;;;;;;;8.04;96.90;100326.07;1735935;82;21053;-79
2021/10/16 07:48:05;;;;;;;45.40;25.27;;;;;;;8.10;97.00;100325.48;1735289;82;21036;-79
2021/10/16 07:50:33;;;;;;;46.28;26.00;;;;;;;8.16;96.63;100322.69;1736276;82;21519;-78
2021/10/16 07:53:00;;;;;;;40.38;23.20;;;;;;;8.22;95.85;100327.41;1732629;82;21545;-80
2021/10/16 07:55:26;;;;;;;41.15;26.05;;;;;;;8.29;95.87;100332.91;1733548;82;21069;-80
2021/10/16 07:57:53;;;;;;;45.95;26.05;;;;;;;8.32;95.10;100338.92;1751050;81;21052;-80
2021/10/16 08:00:19;;;;;;;45.12;26.68;;;;;;;8.40;95.05;100338.79;1751469;81;21546;-79
2021/10/16 08:02:46;;;;;;;49.58;26.37;;;;;;;8.43;93.34;100336.08;1751909;81;22319;-81
2021/10/16 08:05:17;;;;;;;46.68;27.58;;;;;;;8.47;93.14;100337.73;1751779;81;21041;-83
2021/10/16 08:07:44;;;;;;;56.23;27.17;;;;;;;8.51;92.89;100336.77;1751286;81;21057;-82
2021/10/16 08:10:11;;;;;;;46.23;28.73;;;;;;;8.54;92.20;100328.80;1734955;81;21558;-83
2021/10/16 08:12:38;;;;;;;51.58;31.00;;;;;;;8.58;92.17;100325.20;1724989;81;21045;-83
2021/10/16 08:15:07;;;;;;;55.78;31.17;;;;;;;8.65;92.02;100328.53;1726688;81;21305;-81
2021/10/16 08:17:34;;;;;;;57.33;31.80;;;;;;;8.77;91.51;100322.09;1752573;81;21077;-83
2021/10/16 08:20:03;;;;;;;55.98;31.50;;;;;;;8.91;91.12;100324.35;1752256;81;21049;-82
2021/10/16 08:22:30;;;;;;;51.88;30.52;;;;;;;9.03;90.53;100316.98;1752398;81;21021;-82
2021/10/16 08:24:58;;;;;;;47.80;28.00;;;;;;;9.12;88.79;100316.33;1752275;81;21104;-83
2021/10/16 08:27:25;;;;;;;49.50;28.38;;;;;;;9.16;88.20;100315.34;1752414;81;21164;-84
2021/10/16 08:29:51;;;;;;;50.70;27.35;;;;;;;9.24;88.78;100314.66;1734722;81;21096;-84
2021/10/16 08:32:19;;;;;;;45.70;27.50;;;;;;;9.31;87.61;100322.77;1722172;82;21773;-83
2021/10/16 08:34:46;;;;;;;47.67;27.85;;;;;;;9.41;87.96;100330.82;1721451;81;21024;-84
2021/10/16 08:37:12;;;;;;;38.13;24.37;;;;;;;9.62;88.48;100324.52;1722644;83;21087;-82
2021/10/16 08:39:39;;;;;;;46.65;25.75;;;;;;;9.95;87.65;100317.81;1695793;83;21922;-84
2021/10/16 08:42:06;;;;;;;42.40;25.23;;;;;;;10.40;85.27;100326.47;1722465;83;21092;-82
2021/10/16 08:44:34;;;;;;;44.00;24.80;;;;;;;10.89;81.37;100320.86;1722443;83;21262;-83
2021/10/16 08:47:03;;;;;;;34.03;19.87;;;;;;;11.19;78.52;100312.77;1722680;83;21068;-83
2021/10/16 08:49:31;;;;;;;41.65;25.10;;;;;;;11.17;77.94;100310.64;1722591;83;21013;-83
2021/10/16 08:52:00;;;;;;;44.77;24.23;;;;;;;11.06;77.92;100318.92;1722660;83;21170;-84
2021/10/16 08:54:28;;;;;;;46.60;28.07;;;;;;;10.95;78.26;100306.59;1722329;83;21060;-83
2021/10/16 08:56:56;;;;;;;47.67;27.95;;;;;;;10.91;78.99;100298.80;1720345;83;21069;-84
2021/10/16 08:59:22;;;;;;;52.50;28.55;;;;;;;10.90;78.91;100291.83;1716943;83;21031;-82
2021/10/16 09:02:05;;;;;;;58.55;33.73;;;;;;;11.00;78.25;100309.95;1716775;83;21064;-83
2021/10/16 09:04:35;;;;;;;52.55;32.67;;;;;;;11.08;78.35;100317.95;1736736;82;21960;-83
2021/10/16 09:07:19;;;;;;;38.65;25.43;;;;;;;11.20;78.75;100322.38;1743552;82;21522;-83
2021/10/16 09:09:49;;;;;;;45.10;26.23;;;;;;;11.32;78.76;100321.95;1734632;82;21594;-82
2021/10/16 09:12:18;;;;;;;37.00;23.30;;;;;;;11.61;78.63;100314.70;1717749;82;21049;-82
2021/10/16 09:14:49;;;;;;;41.28;25.12;;;;;;;11.83;75.63;100318.23;1721725;82;22251;-83
2021/10/16 09:17:17;;;;;;;41.50;25.88;;;;;;;11.73;73.59;100314.22;1741710;82;21125;-82
2021/10/16 09:19:46;;;;;;;39.42;23.85;;;;;;;11.73;74.84;100316.86;1736282;82;21101;-83
2021/10/16 09:22:19;;;;;;;39.50;25.80;;;;;;;12.10;73.43;100312.80;1747199;82;21120;-82
2021/10/16 09:24:50;;;;;;;42.08;26.60;;;;;;;12.73;70.51;100313.69;1748449;82;21005;-83
2021/10/16 09:27:24;;;;;;;41.68;24.40;;;;;;;13.48;66.95;100312.18;1747812;82;21163;-78
2021/10/16 09:30:03;;;;;;;35.05;23.22;;;;;;;14.22;64.27;100304.70;1747434;82;21932;-78
2021/10/16 09:32:30;;;;;;;35.73;21.50;;;;;;;14.81;61.14;100299.50;1744180;81;21010;-79
2021/10/16 09:35:02;;;;;;;38.15;20.62;;;;;;;15.25;58.72;100304.28;1725930;82;20989;-79
2021/10/16 09:37:28;;;;;;;26.93;17.87;;;;;;;15.54;58.46;100295.19;1742197;82;20990;-81
2021/10/16 09:39:58;;;;;;;28.02;16.77;;;;;;;16.01;57.17;100294.37;1738214;81;21025;-84
2021/10/16 09:42:45;;;;;;;28.65;17.42;;;;;;;16.43;54.72;100285.33;1743489;82;21166;-83
2021/10/16 09:45:14;;;;;;;23.75;16.25;;;;;;;16.56;51.54;100287.17;1739132;82;21089;-84
2021/10/16 09:47:54;;;;;;;30.75;16.45;;;;;;;16.55;49.80;100290.77;1676658;84;21136;-84
2021/10/16 09:50:21;;;;;;;28.23;16.93;;;;;;;16.61;49.47;100295.33;1737740;82;21084;-83
2021/10/16 09:52:50;;;;;;;32.08;18.92;;;;;;;16.34;49.40;100292.03;1725906;82;21111;-79
2021/10/16 09:55:16;;;;;;;28.20;18.07;;;;;;;16.26;49.13;100296.92;1744602;82;21150;-82
2021/10/16 09:57:46;;;;;;;31.10;17.32;;;;;;;16.52;49.40;100288.30;1749744;81;21104;-83
2021/10/16 10:00:13;;;;;;;29.65;18.62;;;;;;;16.86;48.44;100288.95;1752732;81;21041;-83
2021/10/16 10:02:40;;;;;;;27.48;18.20;;;;;;;16.80;48.58;100288.01;1752576;81;21053;-86
2021/10/16 10:05:09;;;;;;;34.83;23.30;;;;;;;16.61;49.17;100282.91;1753451;81;21020;-84
2021/10/16 10:07:36;;;;;;;27.40;17.92;;;;;;;17.01;48.67;100285.84;1739677;81;21076;-84
2021/10/16 10:10:05;;;;;;;29.80;19.17;;;;;;;17.37;47.29;100274.72;1731151;81;21116;-85
2021/10/16 10:12:33;;;;;;;23.50;14.85;;;;;;;17.28;47.35;100275.78;1714383;83;21093;-86
2021/10/16 10:15:01;;;;;;;35.48;18.90;;;;;;;17.08;47.81;100282.33;1698020;83;21103;-85
2021/10/16 10:17:32;;;;;;;31.42;18.57;;;;;;;16.97;47.52;100272.34;1678376;83;21006;-85
2021/10/16 10:20:06;;;;;;;;;;;;;;;16.64;48.03;100269.91;1708208;83;21562;-84
2021/10/16 10:22:36;;;;;;;32.23;19.65;;;;;;;16.69;48.28;100259.84;1700699;83;20190;-85
2021/10/16 10:25:23;;;;;;;27.32;18.60;;;;;;;16.72;48.85;100259.65;1711531;83;21092;-82
2021/10/16 10:27:51;;;;;;;31.35;18.55;;;;;;;16.96;47.73;100256.86;1647636;85;21096;-84
2021/10/16 10:30:42;;;;;;;30.50;18.55;;;;;;;17.06;47.28;100254.96;1681240;84;21029;-84
2021/10/16 10:33:23;;;;;;;26.35;14.80;;;;;;;17.13;46.66;100249.64;1688979;84;21160;-82
2021/10/16 10:36:23;;;;;;;30.10;18.98;;;;;;;17.54;46.32;100239.52;1687324;84;21092;-85
2021/10/16 10:38:49;;;;;;;31.55;18.05;;;;;;;17.88;45.71;100229.38;1688790;84;21034;-83
2021/10/16 10:41:31;;;;;;;30.10;18.10;;;;;;;17.60;45.00;100233.80;1686764;84;21124;-85
2021/10/16 10:44:00;;;;;;;32.23;19.27;;;;;;;17.84;44.75;100230.03;1683399;84;21113;-85
2021/10/16 10:46:28;;;;;;;29.70;17.62;;;;;;;17.84;44.75;100230.03;1697586;84;21150;-83
2021/10/16 10:49:08;;;;;;;28.45;17.30;;;;;;;18.06;44.92;100227.27;1688661;84;21057;-83
2021/10/16 10:51:38;;;;;;;21.87;15.95;;;;;;;18.39;43.57;100220.16;1692437;84;20990;-76
2021/10/16 10:54:16;;;;;;;25.40;16.20;;;;;;;18.59;42.09;100218.81;1682703;84;21064;-85
2021/10/16 10:56:51;;;;;;;28.02;15.68;;;;;;;18.95;42.03;100218.06;1681624;84;21158;-79
2021/10/16 10:59:16;;;;;;;19.17;12.73;;;;;;;19.41;41.49;100213.92;1668720;83;21560;-84
2021/10/16 11:02:08;;;;;;;25.70;15.25;;;;;;;19.64;40.72;100216.25;1661091;85;21141;-84
2021/10/16 11:04:47;;;;;;;24.90;15.65;;;;;;;19.97;38.71;100212.94;1693322;83;23065;-85
2021/10/16 11:07:19;;;;;;;27.00;16.37;;;;;;;19.89;38.08;100214.83;1674324;84;21023;-83
2021/10/16 11:09:47;;;;;;;27.90;16.23;;;;;;;19.93;38.68;100206.61;1663209;84;21025;-84
2021/10/16 11:12:15;;;;;;;27.67;16.70;;;;;;;19.82;37.99;100206.91;1674970;85;21149;-85
2021/10/16 11:14:42;;;;;;;24.12;15.88;;;;;;;19.62;37.83;100206.16;1675708;85;21580;-86
2021/10/16 11:17:15;;;;;;;31.68;16.02;;;;;;;19.43;38.18;100199.48;1674859;85;21104;-85
2021/10/16 11:19:57;;;;;;;27.30;15.70;;;;;;;19.47;38.32;100204.98;1675858;85;21116;-82
2021/10/16 11:22:42;;;;;;;35.08;16.60;;;;;;;19.45;38.70;100196.23;1675600;85;21096;-84
2021/10/16 11:25:16;;;;;;;29.80;16.02;;;;;;;19.43;39.69;100194.64;1675572;85;21521;-84
2021/10/16 11:28:01;;;;;;;27.87;15.10;;;;;;;19.57;38.29;100191.80;1683191;85;21094;-82
2021/10/16 11:30:28;;;;;;;32.03;16.77;;;;;;;19.42;38.96;100196.46;1678896;84;21078;-84
2021/10/16 11:33:08;;;;;;;32.10;17.67;;;;;;;19.16;38.39;100192.14;1733260;82;21607;-85
2021/10/16 11:35:39;;;;;;;27.75;16.50;;;;;;;18.82;39.39;100194.56;1691700;84;21027;-84
2021/10/16 11:38:07;;;;;;;35.38;19.60;;;;;;;18.74;39.80;100183.53;1675156;84;21165;-84